sensor_id;sensor_type;location;lat;lon;timestamp;temperature;humidity
27747;DHT22;15138;51.012;4.692;2023-07-13T00:00:57;17.50;99.90
27747;DHT22;15138;51.012;4.692;2023-07-13T00:03:25;17.60;99.90
27747;DHT22;15138;51.012;4.692;2023-07-13T00:05:59;17.50;99.90
27747;DHT22;15138;51.012;4.692;2023-07-13T00:08:30;17.50;99.90
27747;DHT22;15138;51.012;4.692;2023-07-13T00:11:00;17.40;99.90
27747;DHT22;15138;51.012;4.692;2023-07-13T00:13:28;17.50;99.90
27747;DHT22;15138;51.012;4.692;2023-07-13T00:15:58;17.50;99.90
27747;DHT22;15138;51.012;4.692;2023-07-13T00:18:27;17.40;99.90
27747;DHT22;15138;51.012;4.692;2023-07-13T00:20:57;17.30;99.90
27747;DHT22;15138;51.012;4.692;2023-07-13T00:23:33;17.30;99.90
27747;DHT22;15138;51.012;4.692;2023-07-13T00:26:03;17.20;99.90
27747;DHT22;15138;51.012;4.692;2023-07-13T00:28:32;17.20;99.90
27747;DHT22;15138;51.012;4.692;2023-07-13T00:31:00;17.30;99.90
27747;DHT22;15138;51.012;4.692;2023-07-13T00:33:29;17.20;99.90
27747;DHT22;15138;51.012;4.692;2023-07-13T00:35:58;17.20;99.90
27747;DHT22;15138;51.012;4.692;2023-07-13T00:38:26;17.20;99.90
27747;DHT22;15138;51.012;4.692;2023-07-13T00:40:56;17.10;99.90
27747;DHT22;15138;51.012;4.692;2023-07-13T00:43:27;17.20;99.90
27747;DHT22;15138;51.012;4.692;2023-07-13T00:46:21;17.10;99.90
27747;DHT22;15138;51.012;4.692;2023-07-13T00:48:51;17.10;99.90
27747;DHT22;15138;51.012;4.692;2023-07-13T00:51:30;17.10;99.90
27747;DHT22;15138;51.012;4.692;2023-07-13T00:54:02;17.10;99.90
27747;DHT22;15138;51.012;4.692;2023-07-13T00:56:33;17.10;99.90
27747;DHT22;15138;51.012;4.692;2023-07-13T00:59:03;17.10;99.90
27747;DHT22;15138;51.012;4.692;2023-07-13T01:01:33;17.10;99.90
27747;DHT22;15138;51.012;4.692;2023-07-13T01:04:04;17.10;99.90
27747;DHT22;15138;51.012;4.692;2023-07-13T01:06:35;17.10;99.90
27747;DHT22;15138;51.012;4.692;2023-07-13T01:09:06;17.10;99.90
27747;DHT22;15138;51.012;4.692;2023-07-13T01:11:36;17.10;99.90
27747;DHT22;15138;51.012;4.692;2023-07-13T01:14:05;17.10;99.90
27747;DHT22;15138;51.012;4.692;2023-07-13T01:16:34;17.10;99.90
27747;DHT22;15138;51.012;4.692;2023-07-13T01:19:11;17.10;99.90
27747;DHT22;15138;51.012;4.692;2023-07-13T01:21:41;17.10;99.90
27747;DHT22;15138;51.012;4.692;2023-07-13T01:24:10;17.00;99.90
27747;DHT22;15138;51.012;4.692;2023-07-13T01:26:38;17.00;99.90
27747;DHT22;15138;51.012;4.692;2023-07-13T01:29:07;16.90;99.90
27747;DHT22;15138;51.012;4.692;2023-07-13T01:31:35;16.90;99.90
27747;DHT22;15138;51.012;4.692;2023-07-13T01:34:03;17.00;99.90
27747;DHT22;15138;51.012;4.692;2023-07-13T01:36:32;16.90;99.90
27747;DHT22;15138;51.012;4.692;2023-07-13T01:39:01;17.00;99.90
27747;DHT22;15138;51.012;4.692;2023-07-13T01:41:29;17.10;99.90
27747;DHT22;15138;51.012;4.692;2023-07-13T01:43:58;17.10;99.90
27747;DHT22;15138;51.012;4.692;2023-07-13T01:46:26;17.00;99.90
27747;DHT22;15138;51.012;4.692;2023-07-13T01:48:54;17.00;99.90
27747;DHT22;15138;51.012;4.692;2023-07-13T01:51:22;17.00;99.90
27747;DHT22;15138;51.012;4.692;2023-07-13T01:53:51;17.00;99.90
27747;DHT22;15138;51.012;4.692;2023-07-13T01:56:20;17.10;99.90
27747;DHT22;15138;51.012;4.692;2023-07-13T01:58:48;17.00;99.90
27747;DHT22;15138;51.012;4.692;2023-07-13T02:01:16;17.10;99.90
27747;DHT22;15138;51.012;4.692;2023-07-13T02:03:45;17.10;99.90
27747;DHT22;15138;51.012;4.692;2023-07-13T02:06:13;17.00;99.90
27747;DHT22;15138;51.012;4.692;2023-07-13T02:08:41;17.10;99.90
27747;DHT22;15138;51.012;4.692;2023-07-13T02:11:10;17.10;99.90
27747;DHT22;15138;51.012;4.692;2023-07-13T02:13:39;17.10;99.90
27747;DHT22;15138;51.012;4.692;2023-07-13T02:16:07;17.20;99.90
27747;DHT22;15138;51.012;4.692;2023-07-13T02:18:36;17.10;99.90
27747;DHT22;15138;51.012;4.692;2023-07-13T02:21:04;17.10;99.90
27747;DHT22;15138;51.012;4.692;2023-07-13T02:23:33;17.20;99.90
27747;DHT22;15138;51.012;4.692;2023-07-13T02:26:03;17.20;99.90
27747;DHT22;15138;51.012;4.692;2023-07-13T02:28:31;17.20;99.90
27747;DHT22;15138;51.012;4.692;2023-07-13T02:31:06;17.20;99.90
27747;DHT22;15138;51.012;4.692;2023-07-13T02:33:35;17.30;99.90
27747;DHT22;15138;51.012;4.692;2023-07-13T02:36:03;17.30;99.90
27747;DHT22;15138;51.012;4.692;2023-07-13T02:38:32;17.30;99.90
27747;DHT22;15138;51.012;4.692;2023-07-13T02:41:01;17.30;99.90
27747;DHT22;15138;51.012;4.692;2023-07-13T02:43:30;17.20;99.90
27747;DHT22;15138;51.012;4.692;2023-07-13T02:45:59;17.20;99.90
27747;DHT22;15138;51.012;4.692;2023-07-13T02:48:32;17.10;99.90
27747;DHT22;15138;51.012;4.692;2023-07-13T02:51:00;17.10;99.90
27747;DHT22;15138;51.012;4.692;2023-07-13T02:53:28;17.00;99.90
27747;DHT22;15138;51.012;4.692;2023-07-13T02:55:56;17.10;99.90
27747;DHT22;15138;51.012;4.692;2023-07-13T02:58:24;17.10;99.90
27747;DHT22;15138;51.012;4.692;2023-07-13T03:00:53;17.10;99.90
27747;DHT22;15138;51.012;4.692;2023-07-13T03:03:21;17.10;99.90
27747;DHT22;15138;51.012;4.692;2023-07-13T03:05:58;17.10;1.00
27747;DHT22;15138;51.012;4.692;2023-07-13T03:08:27;17.00;1.00
27747;DHT22;15138;51.012;4.692;2023-07-13T03:10:59;17.10;99.90
27747;DHT22;15138;51.012;4.692;2023-07-13T03:13:27;17.10;99.90
27747;DHT22;15138;51.012;4.692;2023-07-13T03:15:56;17.00;1.00
27747;DHT22;15138;51.012;4.692;2023-07-13T03:18:25;17.10;1.00
27747;DHT22;15138;51.012;4.692;2023-07-13T03:20:54;17.10;1.00
27747;DHT22;15138;51.012;4.692;2023-07-13T03:23:23;17.20;99.90
27747;DHT22;15138;51.012;4.692;2023-07-13T03:26:01;17.20;99.90
27747;DHT22;15138;51.012;4.692;2023-07-13T03:28:30;17.20;99.90
27747;DHT22;15138;51.012;4.692;2023-07-13T03:31:02;17.20;1.00
27747;DHT22;15138;51.012;4.692;2023-07-13T03:33:31;17.10;1.00
27747;DHT22;15138;51.012;4.692;2023-07-13T03:36:01;17.00;1.00
27747;DHT22;15138;51.012;4.692;2023-07-13T03:38:30;17.00;1.00
27747;DHT22;15138;51.012;4.692;2023-07-13T03:40:58;17.00;1.00
27747;DHT22;15138;51.012;4.692;2023-07-13T03:43:27;17.00;1.00
27747;DHT22;15138;51.012;4.692;2023-07-13T03:45:55;17.10;1.00
27747;DHT22;15138;51.012;4.692;2023-07-13T03:48:23;17.10;1.00
27747;DHT22;15138;51.012;4.692;2023-07-13T03:50:52;17.00;1.00
27747;DHT22;15138;51.012;4.692;2023-07-13T03:53:21;17.00;1.00
27747;DHT22;15138;51.012;4.692;2023-07-13T03:55:49;17.00;1.00
27747;DHT22;15138;51.012;4.692;2023-07-13T03:58:27;17.00;1.00
27747;DHT22;15138;51.012;4.692;2023-07-13T04:00:56;16.90;1.00
27747;DHT22;15138;51.012;4.692;2023-07-13T04:03:25;17.00;25.70
27747;DHT22;15138;51.012;4.692;2023-07-13T04:05:55;16.90;32.40
27747;DHT22;15138;51.012;4.692;2023-07-13T04:08:29;17.00;42.60
27747;DHT22;15138;51.012;4.692;2023-07-13T04:10:58;17.10;1.00
27747;DHT22;15138;51.012;4.692;2023-07-13T04:13:27;17.00;95.90
27747;DHT22;15138;51.012;4.692;2023-07-13T04:15:55;17.10;1.00
27747;DHT22;15138;51.012;4.692;2023-07-13T04:18:24;17.10;23.20
27747;DHT22;15138;51.012;4.692;2023-07-13T04:20:52;17.10;1.00
27747;DHT22;15138;51.012;4.692;2023-07-13T04:23:20;17.10;20.00
27747;DHT22;15138;51.012;4.692;2023-07-13T04:25:52;17.20;1.00
27747;DHT22;15138;51.012;4.692;2023-07-13T04:28:21;17.20;1.00
27747;DHT22;15138;51.012;4.692;2023-07-13T04:30:50;17.20;1.00
27747;DHT22;15138;51.012;4.692;2023-07-13T04:33:18;17.10;52.30
27747;DHT22;15138;51.012;4.692;2023-07-13T04:35:49;17.10;93.50
27747;DHT22;15138;51.012;4.692;2023-07-13T04:38:23;17.20;54.50
27747;DHT22;15138;51.012;4.692;2023-07-13T04:40:56;17.20;35.20
27747;DHT22;15138;51.012;4.692;2023-07-13T04:43:25;17.20;72.90
27747;DHT22;15138;51.012;4.692;2023-07-13T04:45:54;17.20;55.20
27747;DHT22;15138;51.012;4.692;2023-07-13T04:48:23;17.20;51.90
27747;DHT22;15138;51.012;4.692;2023-07-13T04:50:56;17.30;1.00
27747;DHT22;15138;51.012;4.692;2023-07-13T04:53:25;17.30;21.70
27747;DHT22;15138;51.012;4.692;2023-07-13T04:55:54;17.40;1.00
27747;DHT22;15138;51.012;4.692;2023-07-13T04:58:24;17.40;1.00
27747;DHT22;15138;51.012;4.692;2023-07-13T05:00:52;17.40;17.80
27747;DHT22;15138;51.012;4.692;2023-07-13T05:03:20;17.50;1.00
27747;DHT22;15138;51.012;4.692;2023-07-13T05:05:57;17.40;8.30
27747;DHT22;15138;51.012;4.692;2023-07-13T05:08:25;17.50;13.30
27747;DHT22;15138;51.012;4.692;2023-07-13T05:10:53;17.50;1.00
27747;DHT22;15138;51.012;4.692;2023-07-13T05:13:23;17.60;1.00
27747;DHT22;15138;51.012;4.692;2023-07-13T05:15:57;17.50;21.10
27747;DHT22;15138;51.012;4.692;2023-07-13T05:18:25;17.60;99.90
27747;DHT22;15138;51.012;4.692;2023-07-13T05:20:58;17.60;77.50
27747;DHT22;15138;51.012;4.692;2023-07-13T05:23:27;17.40;99.90
27747;DHT22;15138;51.012;4.692;2023-07-13T05:25:55;17.50;99.90
27747;DHT22;15138;51.012;4.692;2023-07-13T05:28:25;17.60;98.80
27747;DHT22;15138;51.012;4.692;2023-07-13T05:30:54;17.60;99.90
27747;DHT22;15138;51.012;4.692;2023-07-13T05:33:24;17.60;99.90
27747;DHT22;15138;51.012;4.692;2023-07-13T05:35:52;17.60;40.90
27747;DHT22;15138;51.012;4.692;2023-07-13T05:38:21;17.70;97.10
27747;DHT22;15138;51.012;4.692;2023-07-13T05:40:50;17.50;99.90
27747;DHT22;15138;51.012;4.692;2023-07-13T05:43:18;17.60;99.90
27747;DHT22;15138;51.012;4.692;2023-07-13T05:45:48;17.70;99.90
27747;DHT22;15138;51.012;4.692;2023-07-13T05:48:16;17.70;81.60
27747;DHT22;15138;51.012;4.692;2023-07-13T05:50:44;17.70;99.90
27747;DHT22;15138;51.012;4.692;2023-07-13T05:53:13;17.80;99.90
27747;DHT22;15138;51.012;4.692;2023-07-13T05:55:41;17.80;99.90
27747;DHT22;15138;51.012;4.692;2023-07-13T05:58:11;17.90;99.90
27747;DHT22;15138;51.012;4.692;2023-07-13T06:00:39;18.00;87.30
27747;DHT22;15138;51.012;4.692;2023-07-13T06:03:09;18.00;99.90
27747;DHT22;15138;51.012;4.692;2023-07-13T06:05:38;17.90;99.90
27747;DHT22;15138;51.012;4.692;2023-07-13T06:08:07;18.00;99.90
27747;DHT22;15138;51.012;4.692;2023-07-13T06:10:35;18.00;99.90
27747;DHT22;15138;51.012;4.692;2023-07-13T06:13:04;17.90;99.90
27747;DHT22;15138;51.012;4.692;2023-07-13T06:15:32;18.10;99.90
27747;DHT22;15138;51.012;4.692;2023-07-13T06:18:00;18.00;99.90
27747;DHT22;15138;51.012;4.692;2023-07-13T06:20:33;18.00;99.90
27747;DHT22;15138;51.012;4.692;2023-07-13T06:23:01;18.20;93.40
27747;DHT22;15138;51.012;4.692;2023-07-13T06:25:30;18.40;30.80
27747;DHT22;15138;51.012;4.692;2023-07-13T06:27:58;18.30;53.40
27747;DHT22;15138;51.012;4.692;2023-07-13T06:30:26;18.30;97.80
27747;DHT22;15138;51.012;4.692;2023-07-13T06:32:54;18.30;91.60
27747;DHT22;15138;51.012;4.692;2023-07-13T06:35:23;18.30;74.80
27747;DHT22;15138;51.012;4.692;2023-07-13T06:37:52;18.20;99.90
27747;DHT22;15138;51.012;4.692;2023-07-13T06:40:20;18.40;92.50
27747;DHT22;15138;51.012;4.692;2023-07-13T06:42:48;18.40;90.80
27747;DHT22;15138;51.012;4.692;2023-07-13T06:45:17;18.50;50.60
27747;DHT22;15138;51.012;4.692;2023-07-13T06:47:45;18.60;11.40
27747;DHT22;15138;51.012;4.692;2023-07-13T06:50:13;18.50;1.00
27747;DHT22;15138;51.012;4.692;2023-07-13T06:52:41;18.50;8.00
27747;DHT22;15138;51.012;4.692;2023-07-13T06:55:11;18.70;1.00
27747;DHT22;15138;51.012;4.692;2023-07-13T06:57:39;18.40;21.70
27747;DHT22;15138;51.012;4.692;2023-07-13T07:00:08;18.60;20.80
27747;DHT22;15138;51.012;4.692;2023-07-13T07:02:36;18.80;1.00
27747;DHT22;15138;51.012;4.692;2023-07-13T07:05:05;19.00;1.00
27747;DHT22;15138;51.012;4.692;2023-07-13T07:07:33;19.00;1.00
27747;DHT22;15138;51.012;4.692;2023-07-13T07:10:02;19.20;1.00
27747;DHT22;15138;51.012;4.692;2023-07-13T07:12:32;19.10;1.00
27747;DHT22;15138;51.012;4.692;2023-07-13T07:15:00;19.20;1.00
27747;DHT22;15138;51.012;4.692;2023-07-13T07:17:28;19.40;1.00
27747;DHT22;15138;51.012;4.692;2023-07-13T07:19:56;19.30;1.00
27747;DHT22;15138;51.012;4.692;2023-07-13T07:22:25;19.40;1.00
27747;DHT22;15138;51.012;4.692;2023-07-13T07:24:54;19.50;1.00
27747;DHT22;15138;51.012;4.692;2023-07-13T07:27:22;19.90;1.00
27747;DHT22;15138;51.012;4.692;2023-07-13T07:29:55;20.10;1.00
27747;DHT22;15138;51.012;4.692;2023-07-13T07:32:29;20.30;1.00
27747;DHT22;15138;51.012;4.692;2023-07-13T07:35:17;20.40;1.00
27747;DHT22;15138;51.012;4.692;2023-07-13T07:37:46;20.60;1.00
27747;DHT22;15138;51.012;4.692;2023-07-13T07:40:16;20.60;1.00
27747;DHT22;15138;51.012;4.692;2023-07-13T07:42:48;20.50;1.00
27747;DHT22;15138;51.012;4.692;2023-07-13T07:45:17;20.80;1.00
27747;DHT22;15138;51.012;4.692;2023-07-13T07:47:46;20.50;99.90
27747;DHT22;15138;51.012;4.692;2023-07-13T07:50:14;20.60;1.00
27747;DHT22;15138;51.012;4.692;2023-07-13T07:52:43;20.90;99.90
27747;DHT22;15138;51.012;4.692;2023-07-13T07:55:11;21.30;99.90
27747;DHT22;15138;51.012;4.692;2023-07-13T07:57:42;21.10;99.90
27747;DHT22;15138;51.012;4.692;2023-07-13T08:00:15;21.20;99.90
27747;DHT22;15138;51.012;4.692;2023-07-13T08:02:47;21.40;99.90
27747;DHT22;15138;51.012;4.692;2023-07-13T08:05:18;21.70;99.90
27747;DHT22;15138;51.012;4.692;2023-07-13T08:08:04;22.10;99.90
27747;DHT22;15138;51.012;4.692;2023-07-13T08:10:35;21.90;99.90
27747;DHT22;15138;51.012;4.692;2023-07-13T08:13:03;21.80;99.90
27747;DHT22;15138;51.012;4.692;2023-07-13T08:15:34;22.10;99.90
27747;DHT22;15138;51.012;4.692;2023-07-13T08:18:04;22.90;99.90
27747;DHT22;15138;51.012;4.692;2023-07-13T08:20:32;22.70;99.90
27747;DHT22;15138;51.012;4.692;2023-07-13T08:23:01;22.70;99.90
27747;DHT22;15138;51.012;4.692;2023-07-13T08:25:29;23.10;99.90
27747;DHT22;15138;51.012;4.692;2023-07-13T08:32:56;23.20;1.00
27747;DHT22;15138;51.012;4.692;2023-07-13T08:35:26;23.20;1.00
27747;DHT22;15138;51.012;4.692;2023-07-13T08:37:54;23.00;99.90
27747;DHT22;15138;51.012;4.692;2023-07-13T08:40:25;22.80;99.90
27747;DHT22;15138;51.012;4.692;2023-07-13T08:42:55;23.20;99.90
27747;DHT22;15138;51.012;4.692;2023-07-13T08:48:00;23.10;99.90
27747;DHT22;15138;51.012;4.692;2023-07-13T08:50:34;23.20;99.90
27747;DHT22;15138;51.012;4.692;2023-07-13T08:53:21;23.00;99.90
27747;DHT22;15138;51.012;4.692;2023-07-13T08:55:58;23.80;99.90
27747;DHT22;15138;51.012;4.692;2023-07-13T08:58:28;23.90;99.90
27747;DHT22;15138;51.012;4.692;2023-07-13T09:01:03;23.50;99.90
27747;DHT22;15138;51.012;4.692;2023-07-13T09:06:09;23.40;1.00
27747;DHT22;15138;51.012;4.692;2023-07-13T09:08:47;24.20;1.00
27747;DHT22;15138;51.012;4.692;2023-07-13T09:11:32;23.90;1.00
27747;DHT22;15138;51.012;4.692;2023-07-13T09:14:06;23.80;1.00
27747;DHT22;15138;51.012;4.692;2023-07-13T09:16:41;23.70;99.90
27747;DHT22;15138;51.012;4.692;2023-07-13T09:21:44;23.60;99.90
27747;DHT22;15138;51.012;4.692;2023-07-13T09:24:29;23.90;99.90
27747;DHT22;15138;51.012;4.692;2023-07-13T09:26:59;23.90;99.90
27747;DHT22;15138;51.012;4.692;2023-07-13T09:29:30;23.80;99.90
27747;DHT22;15138;51.012;4.692;2023-07-13T09:32:04;23.70;99.90
27747;DHT22;15138;51.012;4.692;2023-07-13T09:34:35;24.00;99.90
27747;DHT22;15138;51.012;4.692;2023-07-13T09:37:05;24.50;99.90
27747;DHT22;15138;51.012;4.692;2023-07-13T09:39:36;24.80;99.90
27747;DHT22;15138;51.012;4.692;2023-07-13T09:42:14;25.50;99.90
27747;DHT22;15138;51.012;4.692;2023-07-13T09:44:52;25.40;99.90
27747;DHT22;15138;51.012;4.692;2023-07-13T09:47:22;24.70;99.90
27747;DHT22;15138;51.012;4.692;2023-07-13T09:49:58;24.80;99.90
27747;DHT22;15138;51.012;4.692;2023-07-13T09:52:40;24.30;99.90
27747;DHT22;15138;51.012;4.692;2023-07-13T09:55:24;24.10;99.90
27747;DHT22;15138;51.012;4.692;2023-07-13T09:57:53;24.90;99.90
27747;DHT22;15138;51.012;4.692;2023-07-13T10:00:23;26.10;99.90
27747;DHT22;15138;51.012;4.692;2023-07-13T10:03:03;26.30;99.90
27747;DHT22;15138;51.012;4.692;2023-07-13T10:05:39;26.00;99.90
27747;DHT22;15138;51.012;4.692;2023-07-13T10:08:17;26.00;99.90
27747;DHT22;15138;51.012;4.692;2023-07-13T10:10:46;26.40;99.90
27747;DHT22;15138;51.012;4.692;2023-07-13T10:13:29;26.50;99.90
27747;DHT22;15138;51.012;4.692;2023-07-13T10:15:59;26.90;99.90
27747;DHT22;15138;51.012;4.692;2023-07-13T10:18:28;26.90;99.90
27747;DHT22;15138;51.012;4.692;2023-07-13T10:21:08;26.70;99.90
27747;DHT22;15138;51.012;4.692;2023-07-13T10:24:04;26.90;99.90
27747;DHT22;15138;51.012;4.692;2023-07-13T10:26:34;27.90;99.90
27747;DHT22;15138;51.012;4.692;2023-07-13T10:29:07;27.90;99.90
27747;DHT22;15138;51.012;4.692;2023-07-13T10:31:38;26.70;99.90
27747;DHT22;15138;51.012;4.692;2023-07-13T10:34:09;27.50;1.00
27747;DHT22;15138;51.012;4.692;2023-07-13T10:36:41;27.50;1.00
27747;DHT22;15138;51.012;4.692;2023-07-13T10:39:16;27.80;1.00
27747;DHT22;15138;51.012;4.692;2023-07-13T10:41:48;28.00;1.00
27747;DHT22;15138;51.012;4.692;2023-07-13T10:44:21;28.50;1.00
27747;DHT22;15138;51.012;4.692;2023-07-13T10:46:53;29.00;1.00
27747;DHT22;15138;51.012;4.692;2023-07-13T10:49:23;27.90;1.00
27747;DHT22;15138;51.012;4.692;2023-07-13T10:51:52;28.00;99.90
27747;DHT22;15138;51.012;4.692;2023-07-13T10:54:26;28.00;99.90
27747;DHT22;15138;51.012;4.692;2023-07-13T10:57:13;27.00;99.90
27747;DHT22;15138;51.012;4.692;2023-07-13T10:59:44;28.10;99.90
27747;DHT22;15138;51.012;4.692;2023-07-13T11:02:23;28.00;99.90
27747;DHT22;15138;51.012;4.692;2023-07-13T11:04:54;28.50;99.90
27747;DHT22;15138;51.012;4.692;2023-07-13T11:07:25;28.40;99.90
27747;DHT22;15138;51.012;4.692;2023-07-13T11:09:57;28.40;99.90
27747;DHT22;15138;51.012;4.692;2023-07-13T11:12:50;27.80;99.90
27747;DHT22;15138;51.012;4.692;2023-07-13T11:15:32;28.10;99.90
27747;DHT22;15138;51.012;4.692;2023-07-13T11:18:09;29.00;99.90
27747;DHT22;15138;51.012;4.692;2023-07-13T11:20:46;27.20;98.80
27747;DHT22;15138;51.012;4.692;2023-07-13T11:23:20;27.20;99.90
27747;DHT22;15138;51.012;4.692;2023-07-13T11:25:50;26.50;99.90
27747;DHT22;15138;51.012;4.692;2023-07-13T11:28:31;26.30;99.60
27747;DHT22;15138;51.012;4.692;2023-07-13T11:31:14;26.30;99.90
27747;DHT22;15138;51.012;4.692;2023-07-13T11:33:56;26.80;99.90
27747;DHT22;15138;51.012;4.692;2023-07-13T11:36:31;26.50;99.10
27747;DHT22;15138;51.012;4.692;2023-07-13T11:39:04;27.00;99.90
27747;DHT22;15138;51.012;4.692;2023-07-13T11:41:37;27.30;99.90
27747;DHT22;15138;51.012;4.692;2023-07-13T11:44:13;26.80;96.60
27747;DHT22;15138;51.012;4.692;2023-07-13T11:46:46;27.00;98.90
27747;DHT22;15138;51.012;4.692;2023-07-13T11:49:19;25.90;93.00
27747;DHT22;15138;51.012;4.692;2023-07-13T11:51:51;26.10;98.10
27747;DHT22;15138;51.012;4.692;2023-07-13T11:54:27;26.80;99.90
27747;DHT22;15138;51.012;4.692;2023-07-13T11:56:59;27.00;99.90
27747;DHT22;15138;51.012;4.692;2023-07-13T11:59:30;26.00;97.20
27747;DHT22;15138;51.012;4.692;2023-07-13T12:01:59;26.40;99.90
27747;DHT22;15138;51.012;4.692;2023-07-13T12:04:32;26.70;99.90
27747;DHT22;15138;51.012;4.692;2023-07-13T12:07:06;26.50;99.90
27747;DHT22;15138;51.012;4.692;2023-07-13T12:09:35;26.30;99.90
27747;DHT22;15138;51.012;4.692;2023-07-13T12:12:11;25.90;99.50
27747;DHT22;15138;51.012;4.692;2023-07-13T12:14:39;25.60;97.70
27747;DHT22;15138;51.012;4.692;2023-07-13T12:17:15;25.10;95.20
27747;DHT22;15138;51.012;4.692;2023-07-13T12:19:44;25.30;99.90
27747;DHT22;15138;51.012;4.692;2023-07-13T12:22:14;25.10;98.10
27747;DHT22;15138;51.012;4.692;2023-07-13T12:24:44;24.90;99.90
27747;DHT22;15138;51.012;4.692;2023-07-13T12:27:20;24.40;99.90
27747;DHT22;15138;51.012;4.692;2023-07-13T12:29:51;23.90;99.90
27747;DHT22;15138;51.012;4.692;2023-07-13T12:32:20;23.90;99.90
27747;DHT22;15138;51.012;4.692;2023-07-13T12:34:53;23.70;99.90
27747;DHT22;15138;51.012;4.692;2023-07-13T12:37:23;23.50;99.90
27747;DHT22;15138;51.012;4.692;2023-07-13T12:39:52;23.40;99.90
27747;DHT22;15138;51.012;4.692;2023-07-13T12:42:24;23.50;99.90
27747;DHT22;15138;51.012;4.692;2023-07-13T12:44:57;23.10;99.90
27747;DHT22;15138;51.012;4.692;2023-07-13T12:47:27;22.80;99.90
27747;DHT22;15138;51.012;4.692;2023-07-13T12:49:58;22.90;99.90
27747;DHT22;15138;51.012;4.692;2023-07-13T12:52:30;22.70;99.90
27747;DHT22;15138;51.012;4.692;2023-07-13T12:55:04;22.80;99.90
27747;DHT22;15138;51.012;4.692;2023-07-13T12:57:41;23.00;99.90
27747;DHT22;15138;51.012;4.692;2023-07-13T13:00:22;23.20;99.90
27747;DHT22;15138;51.012;4.692;2023-07-13T13:02:53;23.30;99.90
27747;DHT22;15138;51.012;4.692;2023-07-13T13:05:34;23.40;99.90
27747;DHT22;15138;51.012;4.692;2023-07-13T13:08:04;23.30;99.90
27747;DHT22;15138;51.012;4.692;2023-07-13T13:10:34;23.20;99.90
27747;DHT22;15138;51.012;4.692;2023-07-13T13:13:04;22.80;99.90
27747;DHT22;15138;51.012;4.692;2023-07-13T13:15:32;22.70;99.90
27747;DHT22;15138;51.012;4.692;2023-07-13T13:18:00;23.00;99.90
27747;DHT22;15138;51.012;4.692;2023-07-13T13:20:28;23.00;99.90
27747;DHT22;15138;51.012;4.692;2023-07-13T13:22:57;22.60;99.90
27747;DHT22;15138;51.012;4.692;2023-07-13T13:25:26;22.50;99.90
27747;DHT22;15138;51.012;4.692;2023-07-13T13:27:54;22.70;99.90
27747;DHT22;15138;51.012;4.692;2023-07-13T13:30:24;23.00;99.90
27747;DHT22;15138;51.012;4.692;2023-07-13T13:32:52;23.10;99.90
27747;DHT22;15138;51.012;4.692;2023-07-13T13:35:21;23.10;99.90
27747;DHT22;15138;51.012;4.692;2023-07-13T13:37:49;23.10;99.90
27747;DHT22;15138;51.012;4.692;2023-07-13T13:40:19;23.10;99.90
27747;DHT22;15138;51.012;4.692;2023-07-13T13:42:50;23.20;99.90
27747;DHT22;15138;51.012;4.692;2023-07-13T13:45:19;23.40;99.90
27747;DHT22;15138;51.012;4.692;2023-07-13T13:47:49;23.70;99.90
27747;DHT22;15138;51.012;4.692;2023-07-13T13:50:20;23.80;99.90
27747;DHT22;15138;51.012;4.692;2023-07-13T13:52:51;23.70;99.90
27747;DHT22;15138;51.012;4.692;2023-07-13T13:55:20;23.90;99.90
27747;DHT22;15138;51.012;4.692;2023-07-13T13:57:50;23.90;99.90
27747;DHT22;15138;51.012;4.692;2023-07-13T14:00:20;23.70;99.90
27747;DHT22;15138;51.012;4.692;2023-07-13T14:02:50;23.20;99.90
27747;DHT22;15138;51.012;4.692;2023-07-13T14:05:25;23.10;99.90
27747;DHT22;15138;51.012;4.692;2023-07-13T14:07:54;23.30;99.90
27747;DHT22;15138;51.012;4.692;2023-07-13T14:10:23;23.50;99.90
27747;DHT22;15138;51.012;4.692;2023-07-13T14:12:52;23.40;99.90
27747;DHT22;15138;51.012;4.692;2023-07-13T14:15:25;23.60;99.90
27747;DHT22;15138;51.012;4.692;2023-07-13T14:17:55;23.90;99.90
27747;DHT22;15138;51.012;4.692;2023-07-13T14:20:25;24.10;99.90
27747;DHT22;15138;51.012;4.692;2023-07-13T14:22:53;24.30;99.90
27747;DHT22;15138;51.012;4.692;2023-07-13T14:25:22;24.60;99.90
27747;DHT22;15138;51.012;4.692;2023-07-13T14:27:54;25.10;99.90
27747;DHT22;15138;51.012;4.692;2023-07-13T14:30:26;25.70;99.90
27747;DHT22;15138;51.012;4.692;2023-07-13T14:32:55;25.80;99.90
27747;DHT22;15138;51.012;4.692;2023-07-13T14:35:24;25.80;99.90
27747;DHT22;15138;51.012;4.692;2023-07-13T14:37:52;26.10;99.90
27747;DHT22;15138;51.012;4.692;2023-07-13T14:40:25;26.30;99.90
27747;DHT22;15138;51.012;4.692;2023-07-13T14:42:54;26.80;99.90
27747;DHT22;15138;51.012;4.692;2023-07-13T14:45:22;27.20;99.90
27747;DHT22;15138;51.012;4.692;2023-07-13T14:47:51;26.80;99.90
27747;DHT22;15138;51.012;4.692;2023-07-13T14:50:23;26.40;99.90
27747;DHT22;15138;51.012;4.692;2023-07-13T14:52:52;25.90;99.90
27747;DHT22;15138;51.012;4.692;2023-07-13T14:55:20;25.80;99.90
27747;DHT22;15138;51.012;4.692;2023-07-13T14:57:49;25.60;99.90
27747;DHT22;15138;51.012;4.692;2023-07-13T15:00:19;25.50;99.90
27747;DHT22;15138;51.012;4.692;2023-07-13T15:02:49;25.50;99.90
27747;DHT22;15138;51.012;4.692;2023-07-13T15:05:21;25.40;99.90
27747;DHT22;15138;51.012;4.692;2023-07-13T15:07:52;25.40;99.90
27747;DHT22;15138;51.012;4.692;2023-07-13T15:10:23;25.60;99.90
27747;DHT22;15138;51.012;4.692;2023-07-13T15:12:52;25.90;99.90
27747;DHT22;15138;51.012;4.692;2023-07-13T15:15:20;25.50;99.90
27747;DHT22;15138;51.012;4.692;2023-07-13T15:17:49;26.10;99.90
27747;DHT22;15138;51.012;4.692;2023-07-13T15:20:25;26.10;99.90
27747;DHT22;15138;51.012;4.692;2023-07-13T15:22:57;26.40;99.90
27747;DHT22;15138;51.012;4.692;2023-07-13T15:25:27;27.00;99.90
27747;DHT22;15138;51.012;4.692;2023-07-13T15:27:57;26.90;99.90
27747;DHT22;15138;51.012;4.692;2023-07-13T15:30:28;26.70;99.90
27747;DHT22;15138;51.012;4.692;2023-07-13T15:33:01;26.50;99.90
27747;DHT22;15138;51.012;4.692;2023-07-13T15:35:35;26.50;99.90
27747;DHT22;15138;51.012;4.692;2023-07-13T15:38:13;26.50;99.90
27747;DHT22;15138;51.012;4.692;2023-07-13T15:40:42;26.50;99.90
27747;DHT22;15138;51.012;4.692;2023-07-13T15:43:11;26.90;99.90
27747;DHT22;15138;51.012;4.692;2023-07-13T15:45:40;26.60;99.90
27747;DHT22;15138;51.012;4.692;2023-07-13T15:48:14;26.40;99.90
27747;DHT22;15138;51.012;4.692;2023-07-13T15:50:47;26.50;99.90
27747;DHT22;15138;51.012;4.692;2023-07-13T15:53:19;26.70;99.90
27747;DHT22;15138;51.012;4.692;2023-07-13T15:55:48;26.60;99.90
27747;DHT22;15138;51.012;4.692;2023-07-13T15:58:17;27.20;99.90
27747;DHT22;15138;51.012;4.692;2023-07-13T16:00:48;27.30;99.90
27747;DHT22;15138;51.012;4.692;2023-07-13T16:03:18;27.50;99.90
27747;DHT22;15138;51.012;4.692;2023-07-13T16:05:49;27.60;99.90
27747;DHT22;15138;51.012;4.692;2023-07-13T16:08:24;27.00;99.90